sensor_id;sensor_type;location;lat;lon;timestamp;P1;durP1;ratioP1;P2;durP2;ratioP2
23290;SDS011;11814;44.686;10.842;2022-10-04T00:00:26;24.92;;;17.92;;
23290;SDS011;11814;44.686;10.842;2022-10-04T00:03:10;24.92;;;19.45;;
23290;SDS011;11814;44.686;10.842;2022-10-04T00:05:49;25.20;;;18.25;;
23290;SDS011;11814;44.686;10.842;2022-10-04T00:11:00;30.42;;;21.17;;
23290;SDS011;11814;44.686;10.842;2022-10-04T00:13:29;19.08;;;16.02;;
23290;SDS011;11814;44.686;10.842;2022-10-04T00:15:57;26.23;;;18.60;;
23290;SDS011;11814;44.686;10.842;2022-10-04T00:18:37;23.20;;;17.70;;
23290;SDS011;11814;44.686;10.842;2022-10-04T00:21:05;19.50;;;14.80;;
23290;SDS011;11814;44.686;10.842;2022-10-04T00:28:50;24.65;;;21.02;;
23290;SDS011;11814;44.686;10.842;2022-10-04T00:31:26;24.92;;;20.40;;
23290;SDS011;11814;44.686;10.842;2022-10-04T00:56:08;19.40;;;15.80;;
23290;SDS011;11814;44.686;10.842;2022-10-04T01:01:25;29.85;;;19.05;;
23290;SDS011;11814;44.686;10.842;2022-10-04T01:03:53;24.65;;;18.23;;
23290;SDS011;11814;44.686;10.842;2022-10-04T01:06:21;25.55;;;18.60;;
23290;SDS011;11814;44.686;10.842;2022-10-04T01:08:52;24.55;;;17.15;;
23290;SDS011;11814;44.686;10.842;2022-10-04T01:11:25;25.90;;;21.17;;
23290;SDS011;11814;44.686;10.842;2022-10-04T01:13:57;25.10;;;19.70;;
23290;SDS011;11814;44.686;10.842;2022-10-04T01:16:31;22.13;;;18.52;;
23290;SDS011;11814;44.686;10.842;2022-10-04T01:21:45;30.20;;;20.00;;
23290;SDS011;11814;44.686;10.842;2022-10-04T01:26:43;30.73;;;19.42;;
23290;SDS011;11814;44.686;10.842;2022-10-04T01:29:25;37.70;;;20.52;;
23290;SDS011;11814;44.686;10.842;2022-10-04T01:31:53;32.90;;;20.15;;
23290;SDS011;11814;44.686;10.842;2022-10-04T01:34:25;35.70;;;22.33;;
23290;SDS011;11814;44.686;10.842;2022-10-04T01:36:53;29.73;;;20.67;;
23290;SDS011;11814;44.686;10.842;2022-10-04T01:39:21;30.60;;;19.95;;
23290;SDS011;11814;44.686;10.842;2022-10-04T01:44:36;43.83;;;21.08;;
23290;SDS011;11814;44.686;10.842;2022-10-04T01:47:10;35.60;;;20.02;;
23290;SDS011;11814;44.686;10.842;2022-10-04T01:49:40;33.42;;;20.40;;
23290;SDS011;11814;44.686;10.842;2022-10-04T01:53:09;29.13;;;18.73;;
23290;SDS011;11814;44.686;10.842;2022-10-04T01:55:09;27.15;;;17.40;;
23290;SDS011;11814;44.686;10.842;2022-10-04T01:57:45;27.90;;;17.20;;
23290;SDS011;11814;44.686;10.842;2022-10-04T02:00:18;28.63;;;19.08;;
23290;SDS011;11814;44.686;10.842;2022-10-04T02:02:54;27.83;;;18.90;;
23290;SDS011;11814;44.686;10.842;2022-10-04T02:05:51;25.20;;;18.58;;
23290;SDS011;11814;44.686;10.842;2022-10-04T02:08:23;28.83;;;19.90;;
23290;SDS011;11814;44.686;10.842;2022-10-04T02:10:52;31.60;;;19.85;;
23290;SDS011;11814;44.686;10.842;2022-10-04T02:13:18;26.02;;;17.95;;
23290;SDS011;11814;44.686;10.842;2022-10-04T02:15:45;25.35;;;17.98;;
23290;SDS011;11814;44.686;10.842;2022-10-04T02:18:14;25.98;;;18.08;;
23290;SDS011;11814;44.686;10.842;2022-10-04T02:20:42;26.90;;;17.52;;
23290;SDS011;11814;44.686;10.842;2022-10-04T02:23:09;21.58;;;17.17;;
23290;SDS011;11814;44.686;10.842;2022-10-04T02:25:36;22.33;;;16.80;;
23290;SDS011;11814;44.686;10.842;2022-10-04T02:28:03;23.15;;;17.58;;
23290;SDS011;11814;44.686;10.842;2022-10-04T02:30:37;24.15;;;17.27;;
23290;SDS011;11814;44.686;10.842;2022-10-04T02:33:06;25.60;;;18.77;;
23290;SDS011;11814;44.686;10.842;2022-10-04T02:35:33;20.88;;;15.82;;
23290;SDS011;11814;44.686;10.842;2022-10-04T02:40:54;17.15;;;14.18;;
23290;SDS011;11814;44.686;10.842;2022-10-04T02:43:34;17.08;;;12.88;;
23290;SDS011;11814;44.686;10.842;2022-10-04T02:49:28;19.77;;;15.52;;
23290;SDS011;11814;44.686;10.842;2022-10-04T02:52:18;20.15;;;13.57;;
23290;SDS011;11814;44.686;10.842;2022-10-04T02:54:54;12.98;;;11.18;;
23290;SDS011;11814;44.686;10.842;2022-10-04T02:57:28;13.60;;;11.00;;
23290;SDS011;11814;44.686;10.842;2022-10-04T03:00:08;17.67;;;13.82;;
23290;SDS011;11814;44.686;10.842;2022-10-04T03:05:44;39.50;;;15.52;;
23290;SDS011;11814;44.686;10.842;2022-10-04T03:08:18;40.95;;;18.85;;
23290;SDS011;11814;44.686;10.842;2022-10-04T03:10:44;31.52;;;18.35;;
23290;SDS011;11814;44.686;10.842;2022-10-04T03:13:11;31.60;;;16.95;;
23290;SDS011;11814;44.686;10.842;2022-10-04T03:15:38;26.73;;;16.10;;
23290;SDS011;11814;44.686;10.842;2022-10-04T03:18:04;24.60;;;15.80;;
23290;SDS011;11814;44.686;10.842;2022-10-04T03:20:30;22.58;;;16.00;;
23290;SDS011;11814;44.686;10.842;2022-10-04T03:23:00;30.73;;;16.40;;
23290;SDS011;11814;44.686;10.842;2022-10-04T03:25:30;22.35;;;15.90;;
23290;SDS011;11814;44.686;10.842;2022-10-04T03:28:09;27.17;;;15.25;;
23290;SDS011;11814;44.686;10.842;2022-10-04T03:30:35;28.58;;;15.80;;
23290;SDS011;11814;44.686;10.842;2022-10-04T03:33:01;28.27;;;15.55;;
23290;SDS011;11814;44.686;10.842;2022-10-04T03:35:34;33.40;;;17.73;;
23290;SDS011;11814;44.686;10.842;2022-10-04T03:38:04;36.20;;;18.80;;
23290;SDS011;11814;44.686;10.842;2022-10-04T03:40:33;32.13;;;18.10;;
23290;SDS011;11814;44.686;10.842;2022-10-04T03:43:02;36.33;;;18.90;;
23290;SDS011;11814;44.686;10.842;2022-10-04T03:45:29;39.90;;;22.50;;
23290;SDS011;11814;44.686;10.842;2022-10-04T03:47:59;44.70;;;20.02;;
23290;SDS011;11814;44.686;10.842;2022-10-04T03:50:30;43.88;;;20.77;;
23290;SDS011;11814;44.686;10.842;2022-10-04T03:53:11;49.03;;;22.35;;
23290;SDS011;11814;44.686;10.842;2022-10-04T03:58:36;47.28;;;26.00;;
23290;SDS011;11814;44.686;10.842;2022-10-04T04:01:04;60.67;;;27.67;;
23290;SDS011;11814;44.686;10.842;2022-10-04T04:03:37;205.70;;;34.50;;
23290;SDS011;11814;44.686;10.842;2022-10-04T04:06:21;58.90;;;31.08;;
23290;SDS011;11814;44.686;10.842;2022-10-04T04:08:50;76.05;;;33.15;;
23290;SDS011;11814;44.686;10.842;2022-10-04T04:11:22;67.68;;;32.70;;
23290;SDS011;11814;44.686;10.842;2022-10-04T04:16:29;111.25;;;34.17;;
23290;SDS011;11814;44.686;10.842;2022-10-04T04:18:57;100.35;;;31.88;;
23290;SDS011;11814;44.686;10.842;2022-10-04T04:21:25;56.17;;;33.15;;
23290;SDS011;11814;44.686;10.842;2022-10-04T04:23:54;83.45;;;32.55;;
23290;SDS011;11814;44.686;10.842;2022-10-04T04:26:40;229.23;;;39.78;;
23290;SDS011;11814;44.686;10.842;2022-10-04T04:31:42;125.95;;;33.75;;
23290;SDS011;11814;44.686;10.842;2022-10-04T04:34:29;62.90;;;30.27;;
23290;SDS011;11814;44.686;10.842;2022-10-04T04:36:58;97.10;;;34.25;;
23290;SDS011;11814;44.686;10.842;2022-10-04T04:39:26;95.95;;;35.55;;
23290;SDS011;11814;44.686;10.842;2022-10-04T04:41:59;124.97;;;34.65;;
23290;SDS011;11814;44.686;10.842;2022-10-04T04:44:49;83.53;;;33.60;;
23290;SDS011;11814;44.686;10.842;2022-10-04T04:47:36;56.67;;;32.58;;
23290;SDS011;11814;44.686;10.842;2022-10-04T04:50:07;49.60;;;28.85;;
23290;SDS011;11814;44.686;10.842;2022-10-04T04:52:44;40.33;;;28.17;;
23290;SDS011;11814;44.686;10.842;2022-10-04T04:55:19;30.65;;;25.65;;
23290;SDS011;11814;44.686;10.842;2022-10-04T04:57:50;40.20;;;27.42;;
23290;SDS011;11814;44.686;10.842;2022-10-04T05:00:28;34.17;;;26.35;;
23290;SDS011;11814;44.686;10.842;2022-10-04T05:03:00;34.28;;;24.10;;
23290;SDS011;11814;44.686;10.842;2022-10-04T05:05:28;35.55;;;24.42;;
23290;SDS011;11814;44.686;10.842;2022-10-04T05:08:02;37.30;;;26.63;;
23290;SDS011;11814;44.686;10.842;2022-10-04T05:11:01;49.03;;;28.05;;
23290;SDS011;11814;44.686;10.842;2022-10-04T05:13:38;43.42;;;29.98;;
23290;SDS011;11814;44.686;10.842;2022-10-04T05:16:15;56.70;;;32.53;;
23290;SDS011;11814;44.686;10.842;2022-10-04T05:18:46;46.75;;;30.42;;
23290;SDS011;11814;44.686;10.842;2022-10-04T05:21:22;47.40;;;30.27;;
23290;SDS011;11814;44.686;10.842;2022-10-04T05:23:52;53.95;;;31.83;;
23290;SDS011;11814;44.686;10.842;2022-10-04T05:26:30;56.90;;;33.10;;
23290;SDS011;11814;44.686;10.842;2022-10-04T05:28:58;51.38;;;32.05;;
23290;SDS011;11814;44.686;10.842;2022-10-04T05:31:34;58.97;;;33.45;;
23290;SDS011;11814;44.686;10.842;2022-10-04T05:34:35;55.63;;;33.10;;
23290;SDS011;11814;44.686;10.842;2022-10-04T05:45:18;73.40;;;38.95;;
23290;SDS011;11814;44.686;10.842;2022-10-04T05:47:48;58.08;;;36.95;;
23290;SDS011;11814;44.686;10.842;2022-10-04T05:50:28;69.10;;;37.10;;
23290;SDS011;11814;44.686;10.842;2022-10-04T05:53:08;59.15;;;34.30;;
23290;SDS011;11814;44.686;10.842;2022-10-04T06:06:25;71.72;;;37.53;;
23290;SDS011;11814;44.686;10.842;2022-10-04T06:09:58;121.95;;;41.13;;
23290;SDS011;11814;44.686;10.842;2022-10-04T06:21:26;66.05;;;35.60;;
23290;SDS011;11814;44.686;10.842;2022-10-04T06:24:08;81.07;;;41.72;;
23290;SDS011;11814;44.686;10.842;2022-10-04T06:26:43;58.17;;;37.38;;
23290;SDS011;11814;44.686;10.842;2022-10-04T06:29:17;69.53;;;34.50;;
23290;SDS011;11814;44.686;10.842;2022-10-04T06:35:06;73.22;;;32.15;;
23290;SDS011;11814;44.686;10.842;2022-10-04T07:08:17;52.75;;;33.80;;
23290;SDS011;11814;44.686;10.842;2022-10-04T07:16:45;48.10;;;32.35;;
23290;SDS011;11814;44.686;10.842;2022-10-04T07:27:23;54.55;;;33.78;;
23290;SDS011;11814;44.686;10.842;2022-10-04T07:29:57;46.92;;;31.40;;
23290;SDS011;11814;44.686;10.842;2022-10-04T07:32:43;48.40;;;32.03;;
23290;SDS011;11814;44.686;10.842;2022-10-04T07:37:49;49.22;;;31.08;;
23290;SDS011;11814;44.686;10.842;2022-10-04T07:40:38;44.60;;;31.02;;
23290;SDS011;11814;44.686;10.842;2022-10-04T07:43:21;45.85;;;30.55;;
23290;SDS011;11814;44.686;10.842;2022-10-04T07:45:53;45.22;;;28.85;;
23290;SDS011;11814;44.686;10.842;2022-10-04T07:48:34;44.42;;;28.40;;
23290;SDS011;11814;44.686;10.842;2022-10-04T07:51:27;42.35;;;28.33;;
23290;SDS011;11814;44.686;10.842;2022-10-04T07:56:53;37.80;;;25.13;;
23290;SDS011;11814;44.686;10.842;2022-10-04T08:10:42;40.38;;;26.77;;
23290;SDS011;11814;44.686;10.842;2022-10-04T08:13:20;41.03;;;25.45;;
23290;SDS011;11814;44.686;10.842;2022-10-04T08:16:01;48.78;;;30.08;;
23290;SDS011;11814;44.686;10.842;2022-10-04T08:18:55;46.20;;;28.13;;
23290;SDS011;11814;44.686;10.842;2022-10-04T08:21:53;44.92;;;28.17;;
23290;SDS011;11814;44.686;10.842;2022-10-04T08:27:11;45.38;;;30.40;;
23290;SDS011;11814;44.686;10.842;2022-10-04T08:30:08;48.78;;;31.55;;
23290;SDS011;11814;44.686;10.842;2022-10-04T08:37:59;55.22;;;39.80;;
23290;SDS011;11814;44.686;10.842;2022-10-04T09:11:53;43.78;;;25.15;;
23290;SDS011;11814;44.686;10.842;2022-10-04T09:28:13;35.83;;;20.92;;
23290;SDS011;11814;44.686;10.842;2022-10-04T10:04:09;31.60;;;16.88;;
23290;SDS011;11814;44.686;10.842;2022-10-04T10:13:41;30.13;;;18.05;;
23290;SDS011;11814;44.686;10.842;2022-10-04T10:16:03;28.15;;;16.70;;
23290;SDS011;11814;44.686;10.842;2022-10-04T10:18:46;31.13;;;17.35;;
23290;SDS011;11814;44.686;10.842;2022-10-04T10:21:36;32.60;;;19.33;;
23290;SDS011;11814;44.686;10.842;2022-10-04T10:24:25;32.55;;;19.50;;
23290;SDS011;11814;44.686;10.842;2022-10-04T11:04:05;26.67;;;15.30;;
23290;SDS011;11814;44.686;10.842;2022-10-04T11:15:56;22.65;;;15.50;;
23290;SDS011;11814;44.686;10.842;2022-10-04T11:21:43;23.85;;;16.02;;
23290;SDS011;11814;44.686;10.842;2022-10-04T11:30:14;26.25;;;16.33;;
23290;SDS011;11814;44.686;10.842;2022-10-04T11:40:52;26.20;;;16.05;;
23290;SDS011;11814;44.686;10.842;2022-10-04T11:54:47;39.67;;;23.23;;
23290;SDS011;11814;44.686;10.842;2022-10-04T11:59:58;36.20;;;21.95;;
23290;SDS011;11814;44.686;10.842;2022-10-04T12:06:35;32.28;;;20.52;;
23290;SDS011;11814;44.686;10.842;2022-10-04T12:11:24;43.38;;;23.83;;
23290;SDS011;11814;44.686;10.842;2022-10-04T12:14:22;33.25;;;22.02;;
23290;SDS011;11814;44.686;10.842;2022-10-04T12:27:59;37.97;;;22.02;;
23290;SDS011;11814;44.686;10.842;2022-10-04T12:33:20;31.35;;;21.17;;
23290;SDS011;11814;44.686;10.842;2022-10-04T12:52:03;25.42;;;17.65;;
23290;SDS011;11814;44.686;10.842;2022-10-04T12:54:42;23.63;;;16.70;;
23290;SDS011;11814;44.686;10.842;2022-10-04T13:00:13;24.55;;;16.80;;
23290;SDS011;11814;44.686;10.842;2022-10-04T13:25:13;18.13;;;11.65;;
23290;SDS011;11814;44.686;10.842;2022-10-04T13:27:45;11.85;;;8.75;;
23290;SDS011;11814;44.686;10.842;2022-10-04T13:30:45;9.95;;;6.63;;
23290;SDS011;11814;44.686;10.842;2022-10-04T13:36:08;16.98;;;9.52;;
23290;SDS011;11814;44.686;10.842;2022-10-04T13:41:31;13.30;;;8.90;;
23290;SDS011;11814;44.686;10.842;2022-10-04T13:49:53;14.85;;;8.30;;
23290;SDS011;11814;44.686;10.842;2022-10-04T13:52:35;11.75;;;8.50;;
23290;SDS011;11814;44.686;10.842;2022-10-04T13:55:39;13.45;;;7.45;;
23290;SDS011;11814;44.686;10.842;2022-10-04T14:09:41;10.50;;;7.30;;
23290;SDS011;11814;44.686;10.842;2022-10-04T14:23:30;10.40;;;5.60;;
23290;SDS011;11814;44.686;10.842;2022-10-04T14:26:33;11.38;;;6.30;;
23290;SDS011;11814;44.686;10.842;2022-10-04T14:29:24;10.73;;;5.65;;
23290;SDS011;11814;44.686;10.842;2022-10-04T14:32:13;9.20;;;6.00;;
23290;SDS011;11814;44.686;10.842;2022-10-04T14:34:58;14.18;;;6.78;;
23290;SDS011;11814;44.686;10.842;2022-10-04T14:42:46;13.15;;;6.65;;
23290;SDS011;11814;44.686;10.842;2022-10-04T14:50:37;11.75;;;6.95;;
23290;SDS011;11814;44.686;10.842;2022-10-04T15:01:37;14.60;;;8.43;;
23290;SDS011;11814;44.686;10.842;2022-10-04T15:07:02;13.88;;;8.82;;
23290;SDS011;11814;44.686;10.842;2022-10-04T15:09:53;14.57;;;9.07;;
23290;SDS011;11814;44.686;10.842;2022-10-04T15:15:19;15.90;;;9.07;;
23290;SDS011;11814;44.686;10.842;2022-10-04T15:21:31;16.05;;;8.32;;
23290;SDS011;11814;44.686;10.842;2022-10-04T15:23:25;12.45;;;6.43;;
23290;SDS011;11814;44.686;10.842;2022-10-04T15:31:18;11.05;;;6.43;;
23290;SDS011;11814;44.686;10.842;2022-10-04T15:39:07;20.58;;;10.02;;
23290;SDS011;11814;44.686;10.842;2022-10-04T15:47:13;14.85;;;10.02;;
23290;SDS011;11814;44.686;10.842;2022-10-04T15:50:19;15.70;;;9.45;;
23290;SDS011;11814;44.686;10.842;2022-10-04T15:58:18;17.35;;;11.00;;
23290;SDS011;11814;44.686;10.842;2022-10-04T16:01:14;21.55;;;12.20;;
23290;SDS011;11814;44.686;10.842;2022-10-04T16:04:16;18.42;;;12.60;;
23290;SDS011;11814;44.686;10.842;2022-10-04T16:06:54;19.85;;;12.48;;
23290;SDS011;11814;44.686;10.842;2022-10-04T16:23:39;17.08;;;11.07;;
23290;SDS011;11814;44.686;10.842;2022-10-04T16:28:46;14.32;;;8.88;;
23290;SDS011;11814;44.686;10.842;2022-10-04T16:36:43;12.35;;;7.88;;
23290;SDS011;11814;44.686;10.842;2022-10-04T16:39:35;14.60;;;8.27;;
23290;SDS011;11814;44.686;10.842;2022-10-04T16:45:29;11.15;;;7.63;;
23290;SDS011;11814;44.686;10.842;2022-10-04T16:48:01;12.88;;;8.13;;
23290;SDS011;11814;44.686;10.842;2022-10-04T16:56:25;13.15;;;8.32;;
23290;SDS011;11814;44.686;10.842;2022-10-04T16:58:54;12.35;;;7.93;;
23290;SDS011;11814;44.686;10.842;2022-10-04T17:01:28;16.98;;;8.40;;
23290;SDS011;11814;44.686;10.842;2022-10-04T17:12:33;13.48;;;8.98;;
23290;SDS011;11814;44.686;10.842;2022-10-04T17:34:27;20.40;;;9.35;;
23290;SDS011;11814;44.686;10.842;2022-10-04T17:39:51;16.60;;;10.30;;
23290;SDS011;11814;44.686;10.842;2022-10-04T17:48:06;13.73;;;8.57;;
23290;SDS011;11814;44.686;10.842;2022-10-04T17:53:48;14.90;;;9.38;;
23290;SDS011;11814;44.686;10.842;2022-10-04T17:56:44;13.10;;;8.20;;
23290;SDS011;11814;44.686;10.842;2022-10-04T17:59:46;17.10;;;8.90;;
23290;SDS011;11814;44.686;10.842;2022-10-04T18:02:19;16.40;;;9.57;;
23290;SDS011;11814;44.686;10.842;2022-10-04T18:04:58;15.55;;;10.75;;
23290;SDS011;11814;44.686;10.842;2022-10-04T18:07:43;15.15;;;10.10;;
23290;SDS011;11814;44.686;10.842;2022-10-04T18:12:49;17.70;;;9.20;;
23290;SDS011;11814;44.686;10.842;2022-10-04T18:15:26;15.25;;;9.30;;
23290;SDS011;11814;44.686;10.842;2022-10-04T18:20:38;19.48;;;8.90;;
23290;SDS011;11814;44.686;10.842;2022-10-04T18:23:15;17.98;;;9.35;;
23290;SDS011;11814;44.686;10.842;2022-10-04T18:28:41;12.50;;;8.80;;
23290;SDS011;11814;44.686;10.842;2022-10-04T18:31:18;16.30;;;9.45;;
23290;SDS011;11814;44.686;10.842;2022-10-04T18:33:49;10.98;;;8.07;;
23290;SDS011;11814;44.686;10.842;2022-10-04T18:36:21;15.00;;;8.98;;
23290;SDS011;11814;44.686;10.842;2022-10-04T18:41:35;13.43;;;8.48;;
23290;SDS011;11814;44.686;10.842;2022-10-04T18:44:16;12.50;;;8.55;;
23290;SDS011;11814;44.686;10.842;2022-10-04T18:46:54;13.85;;;9.48;;
23290;SDS011;11814;44.686;10.842;2022-10-04T18:49:23;15.20;;;9.10;;
23290;SDS011;11814;44.686;10.842;2022-10-04T18:52:03;14.70;;;8.68;;
23290;SDS011;11814;44.686;10.842;2022-10-04T19:00:06;20.42;;;9.98;;
23290;SDS011;11814;44.686;10.842;2022-10-04T19:03:06;15.93;;;9.38;;
23290;SDS011;11814;44.686;10.842;2022-10-04T19:05:48;16.92;;;9.27;;
23290;SDS011;11814;44.686;10.842;2022-10-04T19:13:41;13.40;;;8.82;;
23290;SDS011;11814;44.686;10.842;2022-10-04T19:16:14;12.25;;;8.27;;
23290;SDS011;11814;44.686;10.842;2022-10-04T19:18:57;15.57;;;9.00;;
23290;SDS011;11814;44.686;10.842;2022-10-04T19:27:04;15.35;;;9.30;;
23290;SDS011;11814;44.686;10.842;2022-10-04T19:38:35;22.50;;;13.73;;
23290;SDS011;11814;44.686;10.842;2022-10-04T19:41:33;21.27;;;13.15;;
23290;SDS011;11814;44.686;10.842;2022-10-04T19:54:43;25.38;;;17.75;;
23290;SDS011;11814;44.686;10.842;2022-10-04T19:57:10;22.52;;;15.48;;
23290;SDS011;11814;44.686;10.842;2022-10-04T19:59:39;20.77;;;16.77;;
23290;SDS011;11814;44.686;10.842;2022-10-04T20:02:07;23.05;;;16.95;;
23290;SDS011;11814;44.686;10.842;2022-10-04T20:04:34;24.20;;;17.00;;
23290;SDS011;11814;44.686;10.842;2022-10-04T20:07:02;24.27;;;16.70;;
23290;SDS011;11814;44.686;10.842;2022-10-04T20:26:47;21.25;;;16.45;;
23290;SDS011;11814;44.686;10.842;2022-10-04T20:29:55;24.65;;;17.50;;
23290;SDS011;11814;44.686;10.842;2022-10-04T20:34:58;24.70;;;16.33;;
23290;SDS011;11814;44.686;10.842;2022-10-04T20:45:54;23.30;;;16.95;;
23290;SDS011;11814;44.686;10.842;2022-10-04T20:50:48;23.85;;;16.23;;
23290;SDS011;11814;44.686;10.842;2022-10-04T20:53:30;26.27;;;17.17;;
23290;SDS011;11814;44.686;10.842;2022-10-04T20:56:10;26.08;;;17.85;;
23290;SDS011;11814;44.686;10.842;2022-10-04T20:58:54;27.75;;;18.50;;
23290;SDS011;11814;44.686;10.842;2022-10-04T21:01:27;29.90;;;19.88;;
23290;SDS011;11814;44.686;10.842;2022-10-04T21:04:27;24.85;;;19.30;;
23290;SDS011;11814;44.686;10.842;2022-10-04T21:07:06;26.40;;;19.67;;
23290;SDS011;11814;44.686;10.842;2022-10-04T21:09:35;25.45;;;18.08;;
23290;SDS011;11814;44.686;10.842;2022-10-04T21:12:03;31.08;;;18.85;;
23290;SDS011;11814;44.686;10.842;2022-10-04T21:14:34;23.88;;;18.60;;
23290;SDS011;11814;44.686;10.842;2022-10-04T21:17:01;28.20;;;18.08;;
23290;SDS011;11814;44.686;10.842;2022-10-04T21:22:00;25.25;;;17.35;;
23290;SDS011;11814;44.686;10.842;2022-10-04T21:27:24;24.23;;;17.58;;
23290;SDS011;11814;44.686;10.842;2022-10-04T21:29:50;28.25;;;17.88;;
23290;SDS011;11814;44.686;10.842;2022-10-04T21:32:17;34.05;;;18.23;;
23290;SDS011;11814;44.686;10.842;2022-10-04T21:34:44;27.60;;;18.25;;
23290;SDS011;11814;44.686;10.842;2022-10-04T21:37:10;26.38;;;16.70;;
23290;SDS011;11814;44.686;10.842;2022-10-04T21:39:35;26.20;;;15.95;;
23290;SDS011;11814;44.686;10.842;2022-10-04T21:42:01;29.85;;;17.27;;
23290;SDS011;11814;44.686;10.842;2022-10-04T21:44:28;28.65;;;17.20;;
23290;SDS011;11814;44.686;10.842;2022-10-04T21:46:53;25.38;;;16.02;;
23290;SDS011;11814;44.686;10.842;2022-10-04T21:49:19;26.27;;;17.15;;
23290;SDS011;11814;44.686;10.842;2022-10-04T21:51:45;28.40;;;16.27;;
23290;SDS011;11814;44.686;10.842;2022-10-04T21:54:11;25.75;;;16.00;;
23290;SDS011;11814;44.686;10.842;2022-10-04T21:56:36;31.25;;;17.10;;
23290;SDS011;11814;44.686;10.842;2022-10-04T21:59:02;26.23;;;16.63;;
23290;SDS011;11814;44.686;10.842;2022-10-04T22:01:28;27.77;;;17.58;;
23290;SDS011;11814;44.686;10.842;2022-10-04T22:03:54;25.92;;;17.23;;
23290;SDS011;11814;44.686;10.842;2022-10-04T22:06:19;25.23;;;18.30;;
23290;SDS011;11814;44.686;10.842;2022-10-04T22:08:45;25.63;;;16.23;;
23290;SDS011;11814;44.686;10.842;2022-10-04T22:11:11;29.17;;;17.80;;
23290;SDS011;11814;44.686;10.842;2022-10-04T22:13:37;23.00;;;16.75;;
23290;SDS011;11814;44.686;10.842;2022-10-04T22:16:03;30.27;;;17.95;;
23290;SDS011;11814;44.686;10.842;2022-10-04T22:18:30;27.13;;;18.70;;
23290;SDS011;11814;44.686;10.842;2022-10-04T22:20:56;26.30;;;18.85;;
23290;SDS011;11814;44.686;10.842;2022-10-04T22:23:23;32.72;;;19.42;;
23290;SDS011;11814;44.686;10.842;2022-10-04T22:25:51;31.33;;;18.48;;
23290;SDS011;11814;44.686;10.842;2022-10-04T22:30:53;32.13;;;20.33;;
23290;SDS011;11814;44.686;10.842;2022-10-04T22:35:51;28.63;;;18.45;;
23290;SDS011;11814;44.686;10.842;2022-10-04T22:38:56;33.85;;;21.23;;
23290;SDS011;11814;44.686;10.842;2022-10-04T22:41:27;35.03;;;20.98;;
23290;SDS011;11814;44.686;10.842;2022-10-04T22:43:57;36.53;;;21.27;;
23290;SDS011;11814;44.686;10.842;2022-10-04T22:46:31;33.53;;;20.73;;
23290;SDS011;11814;44.686;10.842;2022-10-04T22:49:00;31.60;;;20.52;;
23290;SDS011;11814;44.686;10.842;2022-10-04T22:51:27;35.35;;;20.80;;
23290;SDS011;11814;44.686;10.842;2022-10-04T22:53:53;28.38;;;19.17;;
23290;SDS011;11814;44.686;10.842;2022-10-04T22:56:20;28.88;;;17.20;;
23290;SDS011;11814;44.686;10.842;2022-10-04T22:58:45;28.10;;;18.77;;
23290;SDS011;11814;44.686;10.842;2022-10-04T23:01:16;27.83;;;19.65;;
23290;SDS011;11814;44.686;10.842;2022-10-04T23:03:43;29.92;;;20.35;;
23290;SDS011;11814;44.686;10.842;2022-10-04T23:06:10;34.97;;;20.20;;
23290;SDS011;11814;44.686;10.842;2022-10-04T23:08:39;31.92;;;20.95;;
23290;SDS011;11814;44.686;10.842;2022-10-04T23:11:08;30.50;;;18.67;;
23290;SDS011;11814;44.686;10.842;2022-10-04T23:13:35;29.58;;;18.80;;
23290;SDS011;11814;44.686;10.842;2022-10-04T23:16:18;34.60;;;19.05;;
23290;SDS011;11814;44.686;10.842;2022-10-04T23:18:46;27.40;;;18.85;;
23290;SDS011;11814;44.686;10.842;2022-10-04T23:21:20;27.05;;;18.92;;
23290;SDS011;11814;44.686;10.842;2022-10-04T23:23:47;29.90;;;19.00;;
23290;SDS011;11814;44.686;10.842;2022-10-04T23:26:26;31.17;;;18.95;;
23290;SDS011;11814;44.686;10.842;2022-10-04T23:28:58;31.63;;;19.20;;
23290;SDS011;11814;44.686;10.842;2022-10-04T23:31:25;30.48;;;18.38;;
23290;SDS011;11814;44.686;10.842;2022-10-04T23:33:52;30.90;;;18.27;;
23290;SDS011;11814;44.686;10.842;2022-10-04T23:36:19;28.85;;;18.30;;
23290;SDS011;11814;44.686;10.842;2022-10-04T23:38:58;25.88;;;17.30;;
23290;SDS011;11814;44.686;10.842;2022-10-04T23:41:25;25.80;;;16.20;;
23290;SDS011;11814;44.686;10.842;2022-10-04T23:43:51;25.88;;;18.08;;
23290;SDS011;11814;44.686;10.842;2022-10-04T23:46:18;23.92;;;16.10;;
23290;SDS011;11814;44.686;10.842;2022-10-04T23:48:47;25.75;;;16.42;;
23290;SDS011;11814;44.686;10.842;2022-10-04T23:51:15;27.15;;;16.75;;
23290;SDS011;11814;44.686;10.842;2022-10-04T23:53:42;24.30;;;17.50;;
23290;SDS011;11814;44.686;10.842;2022-10-04T23:56:14;28.73;;;17.63;;
23290;SDS011;11814;44.686;10.842;2022-10-04T23:58:46;30.65;;;18.65;;
